createdAt,value
2023-04-19T00:02:34.355Z,12.40
2023-04-19T00:07:38.046Z,12.40
2023-04-19T00:12:41.643Z,12.20
2023-04-19T00:17:46.846Z,12.10
2023-04-19T00:22:50.349Z,12.10
2023-04-19T00:27:54.183Z,12.00
2023-04-19T00:32:59.165Z,11.80
2023-04-19T00:38:05.621Z,11.80
2023-04-19T00:43:09.133Z,11.80
2023-04-19T00:48:15.538Z,11.70
2023-04-19T00:53:19.274Z,11.70
2023-04-19T00:58:22.723Z,11.60
2023-04-19T01:03:29.614Z,11.50
2023-04-19T01:08:33.259Z,11.40
2023-04-19T01:13:36.825Z,11.30
2023-04-19T01:18:41.702Z,11.20
2023-04-19T01:23:46.903Z,11.10
2023-04-19T01:28:51.161Z,11.00
2023-04-19T01:33:54.568Z,10.90
2023-04-19T01:38:59.386Z,10.90
2023-04-19T01:44:02.770Z,10.80
2023-04-19T01:49:06.313Z,10.80
2023-04-19T01:54:11.124Z,10.80
2023-04-19T01:59:14.643Z,10.70
2023-04-19T02:04:19.838Z,10.60
2023-04-19T02:09:24.584Z,10.60
2023-04-19T02:14:28.064Z,10.50
2023-04-19T02:19:31.808Z,10.40
2023-04-19T02:24:37.062Z,10.20
2023-04-19T02:29:41.261Z,10.20
2023-04-19T02:34:44.781Z,10.00
2023-04-19T02:39:49.556Z,10.00
2023-04-19T02:44:52.959Z,9.90
2023-04-19T02:49:56.442Z,9.90
2023-04-19T02:55:01.238Z,9.90
2023-04-19T03:00:06.592Z,9.80
2023-04-19T03:05:11.013Z,9.80
2023-04-19T03:10:16.093Z,9.80
2023-04-19T03:15:19.785Z,9.70
2023-04-19T03:20:23.376Z,9.80
2023-04-19T03:25:28.696Z,9.60
2023-04-19T03:30:32.448Z,9.50
2023-04-19T03:35:35.975Z,9.40
2023-04-19T03:40:40.949Z,9.30
2023-04-19T03:45:44.359Z,9.40
2023-04-19T03:50:48.121Z,9.30
2023-04-19T03:55:53.264Z,9.30
2023-04-19T04:00:56.919Z,9.10
2023-04-19T04:06:00.332Z,9.00
2023-04-19T04:11:05.421Z,8.90
2023-04-19T04:16:08.956Z,8.90
2023-04-19T04:21:12.409Z,8.90
2023-04-19T04:26:17.339Z,8.80
2023-04-19T04:31:21.348Z,8.70
2023-04-19T04:36:26.032Z,8.60
2023-04-19T04:41:31.530Z,8.40
2023-04-19T04:46:35.369Z,8.30
2023-04-19T04:51:38.938Z,8.00
2023-04-19T04:56:43.959Z,7.90
2023-04-19T05:01:47.625Z,7.90
2023-04-19T05:06:51.117Z,7.90
2023-04-19T05:11:56.181Z,7.60
2023-04-19T05:16:59.583Z,7.40
2023-04-19T05:22:03.086Z,7.50
2023-04-19T05:27:08.153Z,7.50
2023-04-19T05:32:12.090Z,7.50
2023-04-19T05:37:15.605Z,7.50
2023-04-19T05:42:20.640Z,7.40
2023-04-19T05:47:24.202Z,7.40
2023-04-19T05:52:27.731Z,7.30
2023-04-19T05:57:33.055Z,7.20
2023-04-19T06:02:36.870Z,7.10
2023-04-19T06:07:43.777Z,7.20
2023-04-19T06:12:55.424Z,7.30
2023-04-19T06:17:59.969Z,7.40
2023-04-19T06:23:03.860Z,7.40
2023-04-19T06:28:08.678Z,7.30
2023-04-19T06:33:12.224Z,7.30
2023-04-19T06:38:15.750Z,7.40
2023-04-19T06:43:21.409Z,7.40
2023-04-19T06:48:24.824Z,7.30
2023-04-19T06:53:28.511Z,7.20
2023-04-19T06:58:35.157Z,7.30
2023-04-19T07:03:39.882Z,7.30
2023-04-19T07:13:53.687Z,7.60
2023-04-19T07:18:57.938Z,7.70
2023-04-19T07:24:01.682Z,7.90
2023-04-19T07:29:06.718Z,8.10
2023-04-19T07:34:10.819Z,8.10
2023-04-19T07:39:14.223Z,8.20
2023-04-19T07:44:19.549Z,8.40
2023-04-19T07:49:23.195Z,8.40
2023-04-19T07:54:26.659Z,8.40
2023-04-19T07:59:33.407Z,8.50
2023-04-19T08:04:37.521Z,8.60
2023-04-19T08:09:41.107Z,8.60
2023-04-19T08:14:58.614Z,8.70
2023-04-19T08:20:03.731Z,8.80
2023-04-19T08:25:08.481Z,8.90
2023-04-19T08:30:14.422Z,8.80
2023-04-19T08:35:18.682Z,8.80
2023-04-19T08:40:22.584Z,8.90
2023-04-19T08:45:29.511Z,9.00
2023-04-19T08:50:42.633Z,8.80
2023-04-19T08:56:10.751Z,8.60
2023-04-19T09:01:30.894Z,8.60
2023-04-19T09:06:38.152Z,8.30
2023-04-19T09:11:41.957Z,8.10
2023-04-19T09:16:47.192Z,8.00
2023-04-19T09:21:51.995Z,7.90
2023-04-19T09:26:57.941Z,8.00
2023-04-19T09:32:03.245Z,8.10
2023-04-19T09:37:27.941Z,8.00
2023-04-19T09:48:07.870Z,8.00
2023-04-19T09:53:13.495Z,8.00
2023-04-19T09:58:17.060Z,8.10
2023-04-19T10:03:23.914Z,8.00
2023-04-19T10:08:28.932Z,8.10
2023-04-19T10:13:32.370Z,8.20
2023-04-19T10:18:37.640Z,8.20
2023-04-19T10:23:41.559Z,8.20
2023-04-19T10:28:45.018Z,8.20
2023-04-19T10:33:49.994Z,8.20
2023-04-19T10:38:55.846Z,8.30
2023-04-19T10:44:12.853Z,8.30
2023-04-19T10:49:18.093Z,8.60
2023-04-19T10:54:32.529Z,8.80
2023-04-19T10:59:37.370Z,8.80
2023-04-19T11:05:03.930Z,8.90
2023-04-19T11:10:08.994Z,9.00
2023-04-19T11:15:12.434Z,8.90
2023-04-19T11:20:17.511Z,8.80
2023-04-19T11:25:22.293Z,8.80
2023-04-19T11:30:31.493Z,8.70
2023-04-19T11:35:36.686Z,8.60
2023-04-19T11:40:40.727Z,8.70
2023-04-19T11:45:44.339Z,8.80
2023-04-19T11:50:50.080Z,8.60
2023-04-19T11:55:54.689Z,8.60
2023-04-19T12:01:00.995Z,8.50
2023-04-19T12:06:16.747Z,8.30
2023-04-19T12:11:23.058Z,8.20
2023-04-19T12:16:29.348Z,8.20
2023-04-19T12:21:34.395Z,8.10
2023-04-19T12:26:55.831Z,8.00
2023-04-19T12:31:59.753Z,7.90
2023-04-19T12:37:04.904Z,7.90
2023-04-19T12:42:08.629Z,7.90
2023-04-19T12:47:12.060Z,7.80
2023-04-19T12:52:16.830Z,7.90
2023-04-19T12:57:20.497Z,8.00
2023-04-19T13:02:24.180Z,8.00
2023-04-19T13:07:29.599Z,7.90
2023-04-19T13:12:33.011Z,8.00
2023-04-19T13:17:37.755Z,8.00
2023-04-19T13:22:42.837Z,8.00
2023-04-19T13:27:47.126Z,7.90
2023-04-19T13:32:50.586Z,7.90
2023-04-19T13:37:56.516Z,7.90
2023-04-19T13:43:00.048Z,8.00
2023-04-19T13:48:03.674Z,8.10
2023-04-19T13:53:09.046Z,8.00
2023-04-19T13:58:12.486Z,8.10
2023-04-19T14:03:16.107Z,8.10
2023-04-19T14:08:21.045Z,8.00
2023-04-19T14:13:24.689Z,8.00
2023-04-19T14:18:28.263Z,8.10
2023-04-19T14:23:34.256Z,8.20
2023-04-19T14:28:37.715Z,8.20
2023-04-19T14:33:41.260Z,8.20
2023-04-19T14:38:46.006Z,8.30
2023-04-19T14:43:51.032Z,8.30
2023-04-19T14:48:54.422Z,8.30
2023-04-19T14:53:59.821Z,8.30
2023-04-19T14:59:03.458Z,8.40
2023-04-19T15:04:06.977Z,8.40
2023-04-19T15:09:12.161Z,8.50
2023-04-19T15:14:15.846Z,8.60
2023-04-19T15:19:19.491Z,8.50
2023-04-19T15:24:24.577Z,8.60
2023-04-19T15:29:28.229Z,8.60
2023-04-19T15:34:31.678Z,8.70
2023-04-19T15:39:36.743Z,8.90
2023-04-19T15:44:42.717Z,9.00
2023-04-19T15:49:48.286Z,9.10
2023-04-19T15:54:53.182Z,9.40
2023-04-19T15:59:56.614Z,9.90
2023-04-19T16:05:00.353Z,10.40
2023-04-19T16:10:05.729Z,10.60
2023-04-19T16:15:10.161Z,10.70
2023-04-19T16:20:14.327Z,10.60
2023-04-19T16:25:19.199Z,10.40
2023-04-19T16:30:23.540Z,10.10
2023-04-19T16:35:27.368Z,9.90
2023-04-19T16:40:32.150Z,9.80
2023-04-19T16:45:36.056Z,9.70
2023-04-19T16:50:39.395Z,9.60
2023-04-19T16:55:44.182Z,9.60
2023-04-19T17:00:48.320Z,9.60
2023-04-19T17:05:51.752Z,9.60
2023-04-19T17:10:56.715Z,9.60
2023-04-19T17:16:00.280Z,9.60
2023-04-19T17:21:04.016Z,9.50
2023-04-19T17:26:08.873Z,9.40
2023-04-19T17:31:12.348Z,9.20
2023-04-19T17:36:16.044Z,9.20
2023-04-19T17:41:20.850Z,9.20
2023-04-19T17:46:24.681Z,9.10
2023-04-19T17:51:28.352Z,9.10
2023-04-19T17:56:33.207Z,9.20
2023-04-19T18:01:36.886Z,9.20
2023-04-19T18:06:40.423Z,9.30
2023-04-19T18:11:45.242Z,9.30
2023-04-19T18:16:48.838Z,9.30
2023-04-19T18:21:52.371Z,9.40
2023-04-19T18:26:58.171Z,9.40
2023-04-19T18:32:01.923Z,9.40
2023-04-19T18:37:16.070Z,9.40
2023-04-19T18:42:20.963Z,9.40
2023-04-19T18:47:27.152Z,9.40
2023-04-19T18:52:30.689Z,9.40
2023-04-19T18:57:38.817Z,9.40
2023-04-19T19:02:43.989Z,9.40
2023-04-19T19:07:48.925Z,9.30
2023-04-19T19:12:54.086Z,9.30
2023-04-19T19:17:57.568Z,9.20
2023-04-19T19:23:01.236Z,9.10
2023-04-19T19:28:10.110Z,9.10
2023-04-19T19:33:14.143Z,9.10
2023-04-19T19:38:17.926Z,9.10
2023-04-19T19:43:22.764Z,9.10
2023-04-19T19:48:29.020Z,9.10
2023-04-19T19:53:33.591Z,9.20
2023-04-19T19:58:49.720Z,9.10
2023-04-19T20:03:56.102Z,9.00
2023-04-19T20:09:00.025Z,9.00
2023-04-19T20:14:04.921Z,9.00
2023-04-19T20:19:10.303Z,9.00
2023-04-19T20:24:13.934Z,9.10
2023-04-19T20:29:18.826Z,9.10
2023-04-19T20:34:22.348Z,9.00
2023-04-19T20:39:26.682Z,9.10
2023-04-19T20:44:31.450Z,9.10
2023-04-19T20:49:35.473Z,9.10
2023-04-19T20:54:38.962Z,9.00
2023-04-19T20:59:45.033Z,9.00
2023-04-19T21:04:48.532Z,8.90
2023-04-19T21:09:52.202Z,8.90
2023-04-19T21:14:57.014Z,8.90
2023-04-19T21:20:01.857Z,8.80
2023-04-19T21:25:05.943Z,8.80
2023-04-19T21:30:12.258Z,8.80
2023-04-19T21:35:15.782Z,8.90
2023-04-19T21:40:19.204Z,8.90
2023-04-19T21:45:24.142Z,8.90
2023-04-19T21:50:28.221Z,8.90
2023-04-19T21:55:32.337Z,8.90
2023-04-19T22:00:37.128Z,8.90
2023-04-19T22:05:40.958Z,8.80
2023-04-19T22:10:44.816Z,8.80
2023-04-19T22:15:49.805Z,8.80
2023-04-19T22:20:53.998Z,8.80
2023-04-19T22:25:57.632Z,8.90
2023-04-19T22:31:02.550Z,9.00
2023-04-19T22:36:06.605Z,9.00
2023-04-19T22:41:10.039Z,9.00
2023-04-19T22:46:15.012Z,9.00
2023-04-19T22:51:19.116Z,9.00
2023-04-19T22:56:22.732Z,9.00
2023-04-19T23:01:27.668Z,9.00
2023-04-19T23:06:32.519Z,9.00
2023-04-19T23:11:36.340Z,8.90
2023-04-19T23:16:41.409Z,8.90
2023-04-19T23:21:44.859Z,8.90
2023-04-19T23:26:48.270Z,8.90
2023-04-19T23:31:53.117Z,8.90
2023-04-19T23:36:56.850Z,8.90
2023-04-19T23:42:00.344Z,8.90
2023-04-19T23:47:05.249Z,8.80
2023-04-19T23:52:09.173Z,8.70
2023-04-19T23:57:12.874Z,8.60
